ADDS METAR Data INFO
IDs: Format: Raw Decoded Include TAF

Data at: 2210 UTC 24 Jun 2018

KMSS 242153Z AUTO 35009KT 9SM -RA SCT032 BKN042 OVC065 19/18 A2987 RMK AO2 RAB39 SLP114 P0000 T01890178
KMSS 242138Z AUTO 34010KT 10SM SCT023 BKN030 OVC070 19/18 A2986 RMK AO2 T01940183
KMSS 242126Z AUTO 34009KT 10SM BKN023 BKN028 21/18 A2986 RMK AO2 T02060178
KMSS 242053Z AUTO 23005KT 10SM CLR 22/17 A2985 RMK AO2 SLP107 T02220172 53004
KMSS 241953Z AUTO 23005KT 10SM CLR 22/17 A2984 RMK AO2 SLP104 T02220172
KMSS 241853Z AUTO VRB03KT 10SM CLR 22/17 A2984 RMK AO2 SLP103 T02220172
KMSS 241753Z AUTO 00000KT 10SM FEW110 21/17 A2984 RMK AO2 SLP103 60000 T02110167 10211 20167 58003
KMSS 241653Z AUTO 03004KT 10SM OVC100 21/16 A2984 RMK AO2 SLP104 T02060161
KMSS 241553Z AUTO 00000KT 10SM BKN100 19/17 A2985 RMK AO2 SLP107 T01940167
KMSS 241453Z AUTO 00000KT 10SM OVC095 19/16 A2984 RMK AO2 RAB13E23 SLP106 P0000 60000 T01890156 53006
KMSS 241438Z AUTO 00000KT 10SM FEW012 BKN080 BKN100 19/16 A2984 RMK AO2 RAB13E23 P0000 T01890161
KMSS 241410Z AUTO 00000KT 10SM BKN012 BKN070 BKN100 18/16 A2984 RMK AO2 T01830156
KMSS 241400Z AUTO 00000KT 10SM SCT010 BKN070 18/16 A2983 RMK AO2 T01830161
KMSS 241353Z AUTO 00000KT 10SM BKN010 OVC070 18/16 A2983 RMK AO2 SLP102 T01830156
KMSS 241345Z AUTO 00000KT 10SM BKN010 OVC070 18/16 A2983 RMK AO2 T01780161
KMSS 241316Z AUTO 00000KT 10SM FEW011 OVC070 17/16 A2984 RMK AO2 T01720156
KMSS 241253Z AUTO 00000KT 10SM BKN011 OVC070 17/16 A2984 RMK AO2 SLP103 T01720156
KMSS 241215Z AUTO 00000KT 10SM SCT008 BKN012 OVC065 17/16 A2983 RMK AO2 T01670156
KMSS 241203Z AUTO 00000KT 10SM BKN008 OVC065 17/16 A2983 RMK AO2 CIG 006V012 T01670161
KMSS 241153Z AUTO 00000KT 10SM FEW006 SCT010 OVC065 17/16 A2983 RMK AO2 SLP100 70021 T01670161 10167 20161 53014
KMSS 241149Z AUTO 00000KT 10SM FEW006 SCT010 OVC065 17/16 A2982 RMK AO2
KMSS 241143Z AUTO 00000KT 10SM BKN010 OVC060 17/16 A2982 RMK AO2 T01670156
KMSS 241053Z AUTO 02003KT 10SM BKN009 OVC060 16/16 A2980 RMK AO2 CIG 005V012 SLP092 T01610156
KMSS 240953Z AUTO 36004KT 9SM BKN005 OVC009 16/16 A2980 RMK AO2 CIG 004V007 SLP091 T01610161
KMSS 240853Z AUTO 01003KT 9SM OVC005 16/16 A2979 RMK AO2 SLP087 T01610161 53005
KMSS 240834Z AUTO 35003KT 10SM BKN004 OVC008 16/16 A2979 RMK AO2 T01610161
KMSS 240802Z AUTO 02003KT 10SM OVC005 16/16 A2977 RMK AO2 CIG 003V008 T01610161
KMSS 240753Z AUTO 02003KT 10SM OVC004 16/16 A2977 RMK AO2 SLP082 T01610161
KMSS 240653Z AUTO 03003KT 8SM OVC003 16/16 A2976 RMK AO2 SLP078 T01610161
KMSS 240640Z AUTO 04003KT 8SM OVC003 16/16 A2977 RMK AO2 T01610161
KMSS 240553Z AUTO 05005KT 7SM BKN005 OVC014 16/16 A2977 RMK AO2 RAE36 SLP081 P0002 60011 T01610161 10178 20161 58005
KMSS 240546Z AUTO 03005KT 9SM BKN005 OVC014 16/16 A2978 RMK AO2 RAE36 P0002 T01610161
KMSS 240517Z AUTO 36004KT 8SM -RA BKN004 OVC014 17/17 A2978 RMK AO2 CIG 002V008 P0001 T01670167
KMSS 240505Z AUTO 04005KT 10SM -RA SCT004 OVC014 17/17 A2978 RMK AO2 P0001 T01670167
KMSS 240453Z AUTO 04004KT 5SM -RA BR BKN004 BKN008 OVC014 17/17 A2978 RMK AO2 RAB32 SLP085 P0001 T01670167 402280139
KMSS 240446Z AUTO 00000KT 10SM -RA BKN004 BKN008 OVC014 17/17 A2978 RMK AO2 RAB32 CIG 003V007 P0001 T01670167
KMSS 240430Z AUTO 04003KT 10SM FEW009 OVC014 17/17 A2978 RMK AO2 T01670167
KMSS 240353Z AUTO 06003KT 8SM OVC018 17/17 A2979 RMK AO2 SLP086 T01670167
KMSS 240253Z AUTO 07003KT 10SM OVC017 17/17 A2979 RMK AO2 RAE07 SLP086 P0000 60008 T01720167 51003
KMSS 240227Z AUTO 10004KT 10SM FEW004 OVC019 17/17 A2979 RMK AO2 RAE07 P0000 T01720172
KMSS 240153Z AUTO 06003KT 10SM -RA OVC023 17/17 A2978 RMK AO2 RAE04B38 SLP086 P0000 T01720172
KMSS 240100Z AUTO 36004KT 8SM -RA OVC026 17/17 A2978 RMK AO2 P0000 T01720172
KMSS 240053Z AUTO 02004KT 2 1/2SM +RA BR FEW019 OVC025 17/17 A2978 RMK AO2 RAB2354E20B39 SLP084 P0008 T01670167
KMSS 232353Z AUTO 03003KT 10SM OVC025 18/17 A2978 RMK AO2 RAE03 SLP083 P0000 60010 T01780172 10200 20167 56010
KMSS 232253Z AUTO 00000KT 10SM -RA OVC029 18/17 A2978 RMK AO2 RAB53 SLP084 P0000 T01780167
KMSS 232153Z AUTO 00000KT 10SM OVC032 18/16 A2979 RMK AO2 RAE35 SLP088 P0004 T01780161
KMSS 232115Z AUTO 00000KT 8SM -RA FEW027 OVC036 17/16 A2980 RMK AO2 P0004 T01720161
KMSS 232106Z AUTO 00000KT 2SM RA BR FEW029 OVC034 17/16 A2981 RMK AO2 P0004 T01670161
KMSS 232053Z AUTO 00000KT 7SM -RA FEW028 OVC034 17/16 A2981 RMK AO2 SLP093 P0003 60006 T01720156 56013
KMSS 231953Z AUTO 16006KT 10SM -RA SCT036 OVC047 18/16 A2981 RMK AO2 SLP096 P0001 T01780161
KMSS 231853Z AUTO 18006KT 10SM -RA OVC034 19/14 A2983 RMK AO2 SLP101 P0002 T01890144
KMSS 231753Z AUTO 16005KT 10SM -RA OVC039 20/14 A2984 RMK AO2 RAB16 SLP105 P0000 60000 T02000144 10228 20183 58015
KMSS 231653Z AUTO 12004KT 10SM SCT040 SCT070 BKN100 22/12 A2986 RMK AO2 RAB26E49 SLP110 P0000 T02220122
KMSS 231553Z AUTO 11005KT 10SM CLR 22/12 A2988 RMK AO2 SLP117 T02170117
KMSS 231453Z AUTO 14008KT 10SM FEW110 21/12 A2989 RMK AO2 SLP121 T02110117 58008
KMSS 231353Z AUTO 15005KT 10SM FEW110 20/13 A2990 RMK AO2 SLP126 T02000133
KMSS 231253Z AUTO VRB05KT 10SM FEW120 19/16 A2991 RMK AO2 SLP128 T01940156
KMSS 231153Z AUTO 00000KT 10SM SCT100 18/17 A2991 RMK AO2 SLP128 60000 T01830167 10183 20144 58003
KMSS 231053Z AUTO 00000KT 10SM FEW050 FEW110 18/17 A2992 RMK AO2 RAE37 SLP130 P0000 T01780167